Time;durP1;ratioP1;P1;durP2;ratioP2;P2;SDS_P1;SDS_P2;PMS_P1;PMS_P2;Temp;Humidity;BMP_temperature;BMP_pressure;BME280_temperature;BME280_humidity;BME280_pressure;Samples;Min_cycle;Max_cycle;Signal;HPM_P1;HPM_P2
2022/05/05 00:01:33;;;;;;;16.60;7.80;;;8.80;99.90;;;;;;5075028;28;20115;-68
2022/05/05 00:03:59;;;;;;;10.80;6.70;;;;;;;;;;5058335;28;20477;-68
2022/05/05 00:06:26;;;;;;;16.90;7.30;;;9.10;99.90;;;;;;5074816;28;20132;-68
2022/05/05 00:08:52;;;;;;;18.42;6.60;;;;;;;;;;5092818;28;20055;-67
2022/05/05 00:16:47;;;;;;;10.98;6.07;;;8.90;99.90;;;;;;5074586;28;20417;-68
2022/05/05 00:19:13;;;;;;;12.20;7.35;;;;;;;;;;5074308;28;20120;-70
2022/05/05 00:21:39;;;;;;;16.77;7.95;;;9.10;99.90;;;;;;5074662;28;20544;-69
2022/05/05 00:24:05;;;;;;;11.57;5.60;;;9.00;99.90;;;;;;5092988;28;20382;-69
2022/05/05 00:26:31;;;;;;;15.55;7.10;;;;;;;;;;5057832;28;20036;-68
2022/05/05 00:28:57;;;;;;;12.20;5.32;;;8.90;99.90;;;;;;5092181;28;20046;-69
2022/05/05 00:31:22;;;;;;;13.23;6.57;;;9.20;99.90;;;;;;5074553;28;20036;-68
2022/05/05 00:33:48;;;;;;;11.55;6.05;;;9.00;99.90;;;;;;5092667;28;20067;-69
2022/05/05 00:36:14;;;;;;;13.52;6.43;;;8.90;99.90;;;;;;5074412;28;20452;-69
2022/05/05 00:38:40;;;;;;;14.48;6.50;;;;;;;;;;5092458;28;20032;-69
2022/05/05 00:41:06;;;;;;;12.32;5.88;;;;;;;;;;5073831;28;20028;-68
2022/05/05 00:43:34;;;;;;;9.20;5.45;;;8.90;99.90;;;;;;5057807;28;20035;-69
2022/05/05 00:46:00;;;;;;;12.30;6.05;;;8.90;99.90;;;;;;5092614;28;20071;-69
2022/05/05 00:48:27;;;;;;;13.35;6.25;;;9.00;99.90;;;;;;5092375;28;20085;-68
2022/05/05 00:50:53;;;;;;;13.32;8.65;;;9.00;99.90;;;;;;5091646;28;20775;-68
2022/05/05 00:53:19;;;;;;;16.15;10.68;;;9.00;99.90;;;;;;5092374;28;20071;-69
2022/05/05 00:55:45;;;;;;;18.63;9.55;;;;;;;;;;5057459;28;20482;-70
2022/05/05 00:58:11;;;;;;;13.45;8.20;;;;;;;;;;5073869;28;20040;-70
2022/05/05 01:00:38;;;;;;;14.00;7.55;;;8.90;99.90;;;;;;5073302;28;20028;-68
2022/05/05 01:03:06;;;;;;;13.38;6.88;;;8.90;99.90;;;;;;5092178;28;20031;-69
2022/05/05 01:05:32;;;;;;;11.73;7.78;;;8.90;99.90;;;;;;5073972;28;20079;-69
2022/05/05 01:07:58;;;;;;;15.15;7.00;;;8.90;99.90;;;;;;5092011;28;20048;-69
2022/05/05 01:10:27;;;;;;;14.18;7.70;;;8.70;99.90;;;;;;5056411;28;20040;-69
2022/05/05 01:12:53;;;;;;;18.63;7.00;;;8.80;99.90;;;;;;5073784;28;20036;-68
2022/05/05 01:15:19;;;;;;;13.38;6.88;;;;;;;;;;5073784;28;20119;-68
2022/05/05 01:17:45;;;;;;;15.55;6.97;;;8.80;99.90;;;;;;5091878;28;20040;-68
2022/05/05 01:20:12;;;;;;;12.63;7.28;;;8.90;99.90;;;;;;5091566;28;20043;-68
2022/05/05 01:22:37;;;;;;;11.93;6.38;;;8.70;99.90;;;;;;5091731;28;20521;-68
2022/05/05 01:30:32;;;;;;;8.52;6.07;;;8.80;99.90;;;;;;5091141;28;20071;-68
2022/05/05 01:32:57;;;;;;;10.55;6.50;;;8.60;99.90;;;;;;5073807;28;20442;-68
2022/05/05 01:35:23;;;;;;;11.60;6.10;;;;;;;;;;5091542;28;20044;-69
2022/05/05 01:37:49;;;;;;;14.15;6.75;;;;;;;;;;5073709;28;20105;-69
2022/05/05 01:40:15;;;;;;;12.00;6.45;;;8.60;99.90;;;;;;5073063;28;20482;-67
2022/05/05 01:42:42;;;;;;;13.15;6.30;;;;;;;;;;5091604;28;20578;-70
2022/05/05 01:45:08;;;;;;;12.88;6.90;;;;;;;;;;5073762;28;20418;-68
2022/05/05 01:47:34;;;;;;;14.68;7.80;;;;;;;;;;5056810;28;20047;-70
2022/05/05 01:50:00;;;;;;;13.68;6.60;;;8.60;99.90;;;;;;5075211;28;20040;-68
2022/05/05 01:52:27;;;;;;;14.52;7.05;;;8.70;99.90;;;;;;5095619;28;20128;-68
2022/05/05 01:54:53;;;;;;;11.45;7.50;;;8.60;99.90;;;;;;5077667;28;20513;-68
2022/05/05 01:57:18;;;;;;;13.48;6.43;;;;;;;;;;5077228;28;20040;-69
2022/05/05 01:59:44;;;;;;;13.70;7.15;;;;;;;;;;5076882;28;20052;-69
2022/05/05 02:02:10;;;;;;;11.40;7.10;;;8.50;99.90;;;;;;5077532;28;20208;-68
2022/05/05 02:04:35;;;;;;;12.60;7.13;;;8.40;99.90;;;;;;5077292;28;20094;-68
2022/05/05 02:07:03;;;;;;;12.05;7.05;;;;;;;;;;5077271;28;20420;-68
2022/05/05 02:09:30;;;;;;;12.05;7.10;;;;;;;;;;5094592;28;20463;-69
2022/05/05 02:11:56;;;;;;;15.77;6.95;;;8.20;99.90;;;;;;5077390;28;20044;-69
2022/05/05 02:14:23;;;;;;;12.77;6.90;;;8.40;99.90;;;;;;5095409;28;20050;-68
2022/05/05 02:16:49;;;;;;;16.17;7.60;;;8.30;99.90;;;;;;5095109;28;20036;-68
2022/05/05 02:19:15;;;;;;;13.98;7.25;;;;;;;;;;5076301;28;20044;-69
2022/05/05 02:21:41;;;;;;;13.77;6.35;;;;;;;;;;5077317;28;20127;-68
2022/05/05 02:24:07;;;;;;;11.32;7.07;;;8.20;99.90;;;;;;5077214;28;20448;-68
2022/05/05 02:26:33;;;;;;;13.13;7.07;;;;;;;;;;5076852;28;20174;-68
2022/05/05 02:28:58;;;;;;;11.43;7.15;;;8.20;99.90;;;;;;5059965;28;20043;-68
2022/05/05 02:31:25;;;;;;;12.45;6.75;;;;;;;;;;5076847;28;20040;-69
2022/05/05 02:33:51;;;;;;;14.27;6.85;;;;;;;;;;5076953;28;20132;-69
2022/05/05 02:39:01;;;;;;;17.30;7.18;;;8.10;99.90;;;;;;5075989;28;20153;-69
2022/05/05 02:41:26;;;;;;;13.45;7.13;;;8.10;99.90;;;;;;5059847;28;20123;-68
2022/05/05 02:43:52;;;;;;;23.90;9.00;;;;;;;;;;5060167;28;20066;-69
2022/05/05 02:46:17;;;;;;;13.60;6.72;;;8.00;99.90;;;;;;5094455;28;20032;-69
2022/05/05 02:48:44;;;;;;;10.80;6.32;;;;;;;;;;5094752;28;20067;-68
2022/05/05 02:51:10;;;;;;;13.07;7.35;;;;;;;;;;5094048;28;20050;-68
2022/05/05 02:56:20;;;;;;;11.40;6.82;;;7.80;99.90;;;;;;5076049;28;20052;-68
2022/05/05 02:58:46;;;;;;;12.40;7.00;;;;;;;;;;5095468;28;20042;-69
2022/05/05 03:01:12;;;;;;;14.73;7.20;;;;;;;;;;5074440;28;20148;-68
2022/05/05 03:03:37;;;;;;;13.30;7.25;;;7.80;99.90;;;;;;5076438;28;20040;-68
2022/05/05 03:06:03;;;;;;;12.05;7.10;;;7.80;99.90;;;;;;5094459;28;20118;-68
2022/05/05 03:08:28;;;;;;;13.45;7.50;;;7.80;99.90;;;;;;5094278;28;20074;-68
2022/05/05 03:10:54;;;;;;;17.17;7.78;;;;;;;;;;5093497;28;20036;-70
2022/05/05 03:13:20;;;;;;;15.48;7.97;;;;;;;;;;5076106;28;20039;-68
2022/05/05 03:15:46;;;;;;;17.42;7.47;;;7.80;99.90;;;;;;5076074;28;20048;-68
2022/05/05 03:18:11;;;;;;;16.63;7.15;;;7.70;99.90;;;;;;5059247;28;20074;-68
2022/05/05 03:20:37;;;;;;;13.02;7.40;;;7.80;99.90;;;;;;5058692;28;20032;-69
2022/05/05 03:23:03;;;;;;;11.73;6.95;;;7.70;99.90;;;;;;5075903;28;20093;-69
2022/05/05 03:25:29;;;;;;;15.65;7.50;;;;;;;;;;5059112;28;20047;-68
2022/05/05 03:27:55;;;;;;;13.85;7.50;;;7.60;99.90;;;;;;5075696;28;20032;-68
2022/05/05 03:30:20;;;;;;;13.25;7.28;;;7.80;99.90;;;;;;5058345;28;20045;-68
2022/05/05 03:32:46;;;;;;;13.98;7.55;;;7.60;99.90;;;;;;5093983;28;20510;-68
2022/05/05 03:35:12;;;;;;;17.40;7.55;;;;;;;;;;5093846;28;20036;-68
2022/05/05 03:37:38;;;;;;;13.80;7.25;;;;;;;;;;5075500;28;20040;-68
2022/05/05 03:40:04;;;;;;;12.30;7.80;;;7.70;99.90;;;;;;5074781;28;20177;-68
2022/05/05 03:42:30;;;;;;;14.13;7.40;;;;;;;;;;5058694;28;20089;-69
2022/05/05 03:44:55;;;;;;;14.70;7.32;;;7.50;99.90;;;;;;5075411;28;20043;-68
2022/05/05 03:47:21;;;;;;;14.50;8.07;;;7.50;99.90;;;;;;5058687;28;20047;-68
2022/05/05 03:49:47;;;;;;;13.48;7.60;;;;;;;;;;5074615;28;20046;-69
2022/05/05 03:52:13;;;;;;;19.42;8.38;;;;;;;;;;5075431;28;20066;-69
2022/05/05 03:54:39;;;;;;;15.18;8.40;;;;;;;;;;5075369;28;20075;-68
2022/05/05 03:57:05;;;;;;;16.48;8.90;;;;;;;;;;5074857;28;20055;-69
2022/05/05 03:59:31;;;;;;;15.77;8.63;;;;;;;;;;5074326;28;20043;-69
2022/05/05 04:01:57;;;;;;;11.32;7.95;;;;;;;;;;5093393;28;20040;-69
2022/05/05 04:04:25;;;;;;;13.00;8.27;;;7.30;99.90;;;;;;5075384;28;20253;-69
2022/05/05 04:06:50;;;;;;;13.90;8.55;;;7.40;99.90;;;;;;5093192;28;20527;-68
2022/05/05 04:09:16;;;;;;;13.32;8.18;;;7.20;99.90;;;;;;5074241;28;20082;-68
2022/05/05 04:11:41;;;;;;;21.45;9.13;;;;;;;;;;5074567;28;20055;-70
2022/05/05 04:14:07;;;;;;;16.15;9.80;;;7.30;99.90;;;;;;5093398;28;20106;-68
2022/05/05 04:16:33;;;;;;;18.58;8.73;;;;;;;;;;5074848;28;20047;-69
2022/05/05 04:19:03;;;;;;;17.27;9.52;;;7.20;99.90;;;;;;5057780;28;20044;-68
2022/05/05 04:21:29;;;;;;;17.58;8.60;;;7.10;99.90;;;;;;5074544;28;20489;-68
2022/05/05 04:23:54;;;;;;;19.50;8.45;;;7.20;99.90;;;;;;5075103;28;20047;-68
2022/05/05 04:26:20;;;;;;;14.15;8.48;;;7.20;99.90;;;;;;5074494;28;20043;-68
2022/05/05 04:28:50;;;;;;;16.10;8.75;;;7.20;99.90;;;;;;5074539;28;20051;-69
2022/05/05 04:31:17;;;;;;;16.25;9.18;;;7.30;99.90;;;;;;5074213;28;20563;-68
2022/05/05 04:33:43;;;;;;;13.50;8.15;;;7.50;99.90;;;;;;5074422;28;20498;-68
2022/05/05 04:36:11;;;;;;;12.40;7.38;;;7.30;99.90;;;;;;5092428;28;20046;-68
2022/05/05 04:38:37;;;;;;;14.68;8.40;;;;;;;;;;5074336;28;20512;-70
2022/05/05 04:41:04;;;;;;;13.85;8.73;;;;;;;;;;5057148;28;20481;-69
2022/05/05 04:43:30;;;;;;;19.25;9.20;;;;;;;;;;5092564;28;20032;-69
2022/05/05 04:45:56;;;;;;;16.95;8.55;;;;;;;;;;5074146;28;20461;-69
2022/05/05 04:48:22;;;;;;;15.43;8.30;;;;;;;;;;5074605;28;20474;-69
2022/05/05 04:50:48;;;;;;;15.88;8.57;;;;;;;;;;5073377;28;20043;-70
2022/05/05 04:53:13;;;;;;;15.60;8.20;;;7.40;99.90;;;;;;5074281;28;20603;-68
2022/05/05 04:55:39;;;;;;;19.17;8.77;;;7.30;99.90;;;;;;5092417;28;20044;-68
2022/05/05 04:58:04;;;;;;;15.25;8.75;;;7.50;99.90;;;;;;5073851;28;20510;-68
2022/05/05 05:00:31;;;;;;;13.27;8.70;;;;;;;;;;5073530;28;20046;-71
2022/05/05 05:02:57;;;;;;;18.20;9.27;;;7.40;99.90;;;;;;5074212;28;20516;-68
2022/05/05 05:05:23;;;;;;;14.43;8.57;;;7.50;99.90;;;;;;5057296;28;20032;-68
2022/05/05 05:07:49;;;;;;;13.13;8.38;;;;;;;;;;5057429;28;20055;-69
2022/05/05 05:10:15;;;;;;;15.70;8.38;;;;;;;;;;5073049;28;20039;-69
2022/05/05 05:12:40;;;;;;;30.67;10.93;;;7.70;99.90;;;;;;5057420;28;20104;-69
2022/05/05 05:15:07;;;;;;;14.88;8.60;;;7.70;99.90;;;;;;5057129;28;20074;-68
2022/05/05 05:17:33;;;;;;;15.93;8.77;;;7.60;99.90;;;;;;5057179;28;20044;-68
2022/05/05 05:19:59;;;;;;;16.10;9.98;;;7.70;99.90;;;;;;5072976;28;20036;-69
2022/05/05 05:22:24;;;;;;;13.70;8.45;;;7.90;99.90;;;;;;5070984;28;20506;-69
2022/05/05 05:24:50;;;;;;;15.25;8.20;;;8.00;99.90;;;;;;5091295;28;20128;-68
2022/05/05 05:27:16;;;;;;;19.80;9.75;;;;;;;;;;5091783;28;20039;-69
2022/05/05 05:29:42;;;;;;;15.73;8.70;;;;;;;;;;5056025;28;20047;-70
2022/05/05 05:32:08;;;;;;;13.70;8.15;;;;;;;;;;5092278;28;20044;-68
2022/05/05 05:34:33;;;;;;;16.65;8.77;;;8.20;99.90;;;;;;5091980;28;20119;-68
2022/05/05 05:37:00;;;;;;;15.90;9.43;;;;;;;;;;5070565;28;20365;-69
2022/05/05 05:39:26;;;;;;;14.73;8.63;;;;;;;;;;5048848;28;20052;-68
2022/05/05 05:41:53;;;;;;;16.05;8.77;;;;;;;;;;5049649;28;20037;-66
2022/05/05 05:44:19;;;;;;;20.48;9.88;;;8.30;99.90;;;;;;5049685;28;20049;-68
2022/05/05 05:46:45;;;;;;;14.45;9.07;;;;;;;;;;5067338;28;20051;-68
2022/05/05 05:49:11;;;;;;;19.40;9.45;;;;;;;;;;5066205;28;20077;-67
2022/05/05 05:51:37;;;;;;;13.32;8.30;;;;;;;;;;5049299;28;20064;-69
2022/05/05 05:54:04;;;;;;;14.18;8.20;;;9.00;99.90;;;;;;5067507;28;20105;-70
2022/05/05 05:56:30;;;;;;;16.08;10.20;;;;;;;;;;5049105;28;20147;-70
2022/05/05 05:58:56;;;;;;;11.65;8.68;;;9.10;99.90;;;;;;5049165;28;20457;-67
2022/05/05 06:03:53;;;;;;;17.00;9.25;;;;;;;;;;5066622;28;20047;-69
2022/05/05 06:04:09;;;;;;;17.00;10.32;;;9.00;99.90;;;;;;5049022;28;20110;-68
2022/05/05 06:06:35;;;;;;;11.00;8.18;;;9.20;99.90;;;;;;5067198;28;20044;-68
2022/05/05 06:09:01;;;;;;;18.40;9.90;;;;;;;;;;5052118;28;20051;-68
2022/05/05 06:11:27;;;;;;;19.85;9.50;;;;;;;;;;5042389;28;20032;-70
2022/05/05 06:13:53;;;;;;;13.80;8.63;;;;;;;;;;5031963;28;20091;-68
2022/05/05 06:16:19;;;;;;;14.27;8.50;;;;;;;;;;5048476;28;20068;-67
2022/05/05 06:18:45;;;;;;;16.95;9.38;;;;;;;;;;5048826;28;20734;-68
2022/05/05 06:21:11;;;;;;;18.02;9.82;;;;;;;;;;5067595;28;20097;-69
2022/05/05 06:23:37;;;;;;;18.50;10.98;;;10.00;99.90;;;;;;5048431;28;20055;-66
2022/05/05 06:26:05;;;;;;;19.17;10.30;;;10.20;99.90;;;;;;5066651;28;20043;-68
2022/05/05 06:28:33;;;;;;;18.45;9.80;;;10.20;99.90;;;;;;5048769;28;20055;-68
2022/05/05 06:30:59;;;;;;;16.77;10.98;;;;;;;;;;5066295;28;20040;-68
2022/05/05 06:33:25;;;;;;;17.60;10.13;;;;;;;;;;5049193;28;20036;-68
2022/05/05 06:35:50;;;;;;;20.23;11.60;;;10.30;99.90;;;;;;5072067;28;20040;-68
2022/05/05 06:38:16;;;;;;;18.48;10.20;;;;;;;;;;5081181;28;20036;-70
2022/05/05 06:40:42;;;;;;;24.08;11.48;;;;;;;;;;5055651;28;20383;-68
2022/05/05 06:43:09;;;;;;;15.05;10.35;;;;;;;;;;5054920;28;20039;-68
2022/05/05 06:45:35;;;;;;;21.50;10.60;;;10.60;99.90;;;;;;5038157;28;20048;-68
2022/05/05 06:48:01;;;;;;;13.48;8.68;;;;;;;;;;5058547;28;20119;-69
2022/05/05 06:50:28;;;;;;;14.20;9.88;;;;;;;;;;5062991;28;20402;-68
2022/05/05 06:52:54;;;;;;;16.05;10.00;;;10.90;99.90;;;;;;5046951;28;20095;-68
2022/05/05 06:55:20;;;;;;;14.27;9.75;;;;;;;;;;5065016;28;20143;-68
2022/05/05 06:57:47;;;;;;;13.95;8.25;;;11.20;99.90;;;;;;5068379;28;20044;-68
2022/05/05 07:00:13;;;;;;;17.77;9.73;;;;;;;;;;5062213;28;20902;-68
2022/05/05 07:02:39;;;;;;;15.88;8.80;;;11.30;99.90;;;;;;5064181;28;20571;-68
2022/05/05 07:05:23;;;;;;;10.82;8.55;;;;;;;;;;5077414;28;20033;-68
2022/05/05 07:07:49;;;;;;;16.25;9.32;;;11.40;99.90;;;;;;5058813;28;20060;-67
2022/05/05 07:12:59;;;;;;;18.90;9.55;;;11.50;99.90;;;;;;5055600;28;20595;-68
2022/05/05 07:15:25;;;;;;;13.68;8.48;;;;;;;;;;5064269;28;20036;-68
2022/05/05 07:17:51;;;;;;;13.70;7.72;;;;;;;;;;5055105;28;20513;-69
2022/05/05 07:20:17;;;;;;;15.25;8.43;;;;;;;;;;5071772;28;20036;-68
2022/05/05 07:22:43;;;;;;;18.85;8.25;;;11.60;99.90;;;;;;5049160;28;20386;-69
2022/05/05 07:25:09;;;;;;;14.10;8.82;;;11.80;99.90;;;;;;5060021;28;20028;-69
2022/05/05 07:27:35;;;;;;;13.38;7.38;;;;;;;;;;5072494;28;20136;-67
2022/05/05 07:30:01;;;;;;;16.08;8.02;;;;;;;;;;5083594;28;20134;-69
2022/05/05 07:32:28;;;;;;;10.55;8.13;;;;;;;;;;5064712;28;20036;-68
2022/05/05 07:34:54;;;;;;;16.33;8.27;;;;;;;;;;5060634;28;20414;-68
2022/05/05 07:37:20;;;;;;;16.67;8.55;;;12.20;99.90;;;;;;5054838;28;20056;-69
2022/05/05 07:39:45;;;;;;;16.70;6.68;;;12.50;99.90;;;;;;5070392;28;20069;-68
2022/05/05 07:42:11;;;;;;;14.07;6.68;;;12.50;99.90;;;;;;5052937;28;20032;-68
2022/05/05 07:44:37;;;;;;;14.30;7.18;;;12.80;99.90;;;;;;5059959;28;20607;-68
2022/05/05 07:47:02;;;;;;;15.93;6.70;;;12.80;99.90;;;;;;5066508;28;20123;-68
2022/05/05 07:49:28;;;;;;;15.43;7.13;;;;;;;;;;5060435;28;20121;-70
2022/05/05 07:51:54;;;;;;;11.20;5.72;;;;;;;;;;5071962;28;20043;-68
2022/05/05 07:54:38;;;;;;;11.52;6.22;;;13.20;99.90;;;;;;5061507;28;20055;-68
2022/05/05 07:57:06;;;;;;;14.88;6.13;;;13.10;99.90;;;;;;5060784;28;20048;-68
2022/05/05 07:59:31;;;;;;;15.95;6.30;;;13.30;99.90;;;;;;5052008;28;20470;-68
2022/05/05 08:01:58;;;;;;;11.68;5.80;;;;;;;;;;5055469;28;20056;-70
2022/05/05 08:04:24;;;;;;;15.77;6.40;;;13.20;99.90;;;;;;5070114;28;20119;-68
2022/05/05 08:06:49;;;;;;;9.48;5.78;;;13.30;99.90;;;;;;5053880;28;20148;-68
2022/05/05 08:09:16;;;;;;;14.27;6.68;;;;;;;;;;5073213;28;20089;-69
2022/05/05 08:11:42;;;;;;;13.93;6.15;;;;;;;;;;5060815;28;20177;-71
2022/05/05 08:14:08;;;;;;;8.80;5.10;;;;;;;;;;5060382;28;20044;-68
2022/05/05 08:16:34;;;;;;;9.65;5.88;;;;;;;;;;5057116;28;20044;-68
2022/05/05 08:19:00;;;;;;;8.25;4.93;;;;;;;;;;5055458;28;20674;-67
2022/05/05 08:21:26;;;;;;;12.00;5.50;;;;;;;;;;5042166;28;20076;-70
2022/05/05 08:29:22;;;;;;;7.53;5.30;;;14.00;99.90;;;;;;5071236;28;20055;-67
2022/05/05 08:31:47;;;;;;;8.25;4.90;;;13.90;99.90;;;;;;5073124;28;20048;-70
2022/05/05 08:34:13;;;;;;;10.07;5.05;;;;;;;;;;5053910;28;20071;-71
2022/05/05 08:36:39;;;;;;;14.55;6.10;;;;;;;;;;5061191;28;20168;-72
2022/05/05 08:39:05;;;;;;;10.27;5.45;;;14.20;99.90;;;;;;5060863;28;20029;-71
2022/05/05 08:41:32;;;;;;;7.00;4.88;;;14.50;99.90;;;;;;5053974;28;20043;-70
2022/05/05 08:43:58;;;;;;;8.60;5.00;;;;;;;;;;5037338;28;20115;-71
2022/05/05 08:46:28;;;;;;;10.68;5.22;;;14.60;99.90;;;;;;5054126;28;20129;-70
2022/05/05 08:49:04;;;;;;;9.05;5.20;;;14.70;99.90;;;;;;5071380;28;20067;-71
2022/05/05 08:51:44;;;;;;;8.88;4.90;;;14.70;99.90;;;;;;5051777;28;20044;-70
2022/05/05 08:54:16;;;;;;;9.25;4.63;;;14.90;99.90;;;;;;5051843;28;20040;-71
2022/05/05 08:56:49;;;;;;;12.02;5.15;;;14.90;99.90;;;;;;5064851;28;20048;-69
2022/05/05 08:59:15;;;;;;;10.47;4.93;;;15.30;99.90;;;;;;5051873;28;20064;-71
2022/05/05 09:01:41;;;;;;;9.65;5.72;;;15.30;99.90;;;;;;5053702;28;20037;-70
2022/05/05 09:04:07;;;;;;;10.18;5.78;;;15.30;99.90;;;;;;5037205;28;20036;-70
2022/05/05 09:06:49;;;;;;;8.40;5.13;;;15.50;99.90;;;;;;5052486;28;20509;-71
2022/05/05 09:09:35;;;;;;;10.43;6.13;;;15.60;99.90;;;;;;5071164;28;20071;-71
2022/05/05 09:12:13;;;;;;;12.13;6.70;;;16.00;99.90;;;;;;5053506;28;20044;-70
2022/05/05 09:14:44;;;;;;;14.77;7.82;;;15.90;99.90;;;;;;5053427;28;20109;-70
2022/05/05 09:17:14;;;;;;;8.80;5.32;;;15.90;99.90;;;;;;5071474;28;20541;-71
2022/05/05 09:19:42;;;;;;;10.35;7.25;;;15.90;99.90;;;;;;5053098;28;20048;-71
2022/05/05 09:22:09;;;;;;;15.57;7.43;;;16.00;99.90;;;;;;5071448;28;20060;-70
2022/05/05 09:24:35;;;;;;;11.18;7.22;;;16.20;99.90;;;;;;5053468;28;20504;-70
2022/05/05 09:27:21;;;;;;;13.43;6.93;;;16.60;99.90;;;;;;5052797;28;20138;-70
2022/05/05 09:30:04;;;;;;;11.88;5.68;;;16.30;99.90;;;;;;5052649;28;20044;-68
2022/05/05 09:32:30;;;;;;;9.20;6.22;;;16.20;99.90;;;;;;5071354;28;20036;-66
2022/05/05 09:34:57;;;;;;;15.93;6.78;;;15.90;99.90;;;;;;5071395;28;20105;-70
2022/05/05 09:37:23;;;;;;;16.42;7.35;;;16.00;99.90;;;;;;5070087;28;20044;-71
2022/05/05 09:39:59;;;;;;;12.52;6.72;;;15.90;99.90;;;;;;5052553;28;20033;-71
2022/05/05 09:42:35;;;;;;;11.77;6.40;;;16.40;99.90;;;;;;5053207;28;20040;-71
2022/05/05 09:45:49;;;;;;;8.45;6.22;;;16.70;99.90;;;;;;5053359;28;20037;-70
2022/05/05 09:48:16;;;;;;;11.43;7.63;;;16.90;99.90;;;;;;5071377;28;20440;-71
2022/05/05 09:50:45;;;;;;;10.75;7.45;;;16.90;99.90;;;;;;5052421;28;20102;-71
2022/05/05 09:59:15;;;;;;;11.00;7.18;;;16.50;99.90;;;;;;5070905;28;20067;-70
2022/05/05 10:01:45;;;;;;;13.23;7.25;;;16.30;99.60;;;;;;5058351;28;20115;-71
2022/05/05 10:04:11;;;;;;;17.13;7.72;;;16.20;99.90;;;;;;5076021;28;20036;-71
2022/05/05 10:06:40;;;;;;;13.43;7.82;;;16.10;99.90;;;;;;5020127;28;20049;-70
2022/05/05 10:09:08;;;;;;;14.57;8.00;;;16.30;99.90;;;;;;5084853;28;20159;-67
2022/05/05 10:11:35;;;;;;;10.43;7.15;;;16.40;99.90;;;;;;5059783;28;20051;-70
2022/05/05 10:14:03;;;;;;;10.45;7.18;;;16.60;99.90;;;;;;5093404;28;20051;-70
2022/05/05 10:16:32;;;;;;;12.90;8.40;;;16.60;99.90;;;;;;5076674;28;20040;-70
2022/05/05 10:18:58;;;;;;;12.23;7.75;;;16.70;99.90;;;;;;5038655;28;20043;-71
2022/05/05 10:21:42;;;;;;;10.95;7.93;;;16.90;99.90;;;;;;5056062;28;20062;-71
2022/05/05 10:24:15;;;;;;;11.65;7.85;;;16.90;99.90;;;;;;5071829;28;20364;-71
2022/05/05 10:26:41;;;;;;;15.10;7.50;;;17.30;99.90;;;;;;5072286;28;20131;-71
2022/05/05 10:29:44;;;;;;;11.85;7.80;;;18.40;99.90;;;;;;5061149;28;20036;-69
2022/05/05 10:32:20;;;;;;;10.93;6.93;;;17.20;99.40;;;;;;5037644;28;20044;-71
2022/05/05 10:35:06;;;;;;;11.45;7.22;;;16.80;99.90;;;;;;5069922;28;20466;-71
2022/05/05 10:37:35;;;;;;;13.93;7.85;;;17.30;99.90;;;;;;5047474;28;20049;-72
2022/05/05 10:40:08;;;;;;;10.90;7.78;;;17.40;99.90;;;;;;5053031;28;20087;-72
2022/05/05 10:42:40;;;;;;;11.10;8.18;;;17.70;99.70;;;;;;5068409;28;20037;-71
2022/05/05 10:45:29;;;;;;;10.93;7.53;;;17.30;99.70;;;;;;5069256;28;20123;-71
2022/05/05 10:47:57;;;;;;;13.65;8.07;;;17.40;99.40;;;;;;5066725;28;20036;-71
2022/05/05 10:50:56;;;;;;;16.08;8.75;;;17.50;99.90;;;;;;5059120;28;20045;-70
2022/05/05 10:53:42;;;;;;;15.60;8.73;;;17.40;99.80;;;;;;5038546;28;20558;-71
2022/05/05 10:56:19;;;;;;;12.50;7.90;;;18.50;99.90;;;;;;5049224;28;20484;-69
2022/05/05 10:59:02;;;;;;;12.55;7.82;;;17.80;99.90;;;;;;5052079;28;20040;-71
2022/05/05 11:01:30;;;;;;;12.95;6.75;;;17.80;99.90;;;;;;5035567;28;20494;-72
2022/05/05 11:04:17;;;;;;;11.40;8.07;;;17.60;99.90;;;;;;5072460;28;20037;-72
2022/05/05 11:06:45;;;;;;;10.50;7.57;;;17.40;99.50;;;;;;5055892;28;20060;-71
2022/05/05 11:09:32;;;;;;;11.88;9.00;;;17.80;99.90;;;;;;5073103;28;20402;-71
2022/05/05 11:12:18;;;;;;;10.68;7.60;;;17.70;99.50;;;;;;5073907;28;20555;-71
2022/05/05 11:23:48;;;;;;;11.50;7.53;;;18.10;98.80;;;;;;5073168;28;20127;-73
2022/05/05 11:26:19;;;;;;;12.35;7.00;;;18.60;99.10;;;;;;5055235;28;20126;-71
2022/05/05 11:28:45;;;;;;;12.63;7.38;;;18.50;98.70;;;;;;5038976;28;20571;-71
2022/05/05 11:31:30;;;;;;;11.85;7.85;;;19.00;99.60;;;;;;5072864;28;20047;-71
2022/05/05 11:33:56;;;;;;;15.82;8.75;;;18.70;99.00;;;;;;5055669;28;20561;-71
2022/05/05 11:36:34;;;;;;;10.15;6.95;;;18.60;98.70;;;;;;5055295;28;20033;-72
2022/05/05 11:39:02;;;;;;;12.10;7.20;;;18.50;98.80;;;;;;5054934;28;20048;-72
2022/05/05 11:41:29;;;;;;;12.68;7.90;;;18.70;98.70;;;;;;5055443;28;20041;-71
2022/05/05 11:46:39;;;;;;;10.63;7.50;;;18.50;98.50;;;;;;5055156;28;20052;-72
2022/05/05 11:49:05;;;;;;;10.32;7.03;;;18.50;99.00;;;;;;5072313;28;20494;-71
2022/05/05 11:51:33;;;;;;;11.85;7.47;;;18.70;99.50;;;;;;5073001;28;20036;-71
2022/05/05 11:54:00;;;;;;;12.07;7.35;;;18.70;99.10;;;;;;5038222;28;20497;-71
2022/05/05 11:56:30;;;;;;;14.65;7.05;;;18.90;99.20;;;;;;5054555;28;20036;-71
2022/05/05 12:01:59;;;;;;;12.75;7.18;;;18.70;99.90;;;;;;5092635;28;20040;-71
2022/05/05 12:04:25;;;;;;;9.30;6.53;;;18.50;99.90;;;;;;5074601;28;20032;-71
2022/05/05 12:06:51;;;;;;;14.05;7.53;;;19.00;99.90;;;;;;5092963;28;20067;-71
2022/05/05 12:09:19;;;;;;;11.15;6.97;;;;;;;;;;5092144;28;20040;-70
2022/05/05 12:11:45;;;;;;;8.23;6.68;;;18.90;99.40;;;;;;5092751;28;20452;-70
2022/05/05 12:14:13;;;;;;;10.27;7.20;;;19.20;99.90;;;;;;5057916;28;20042;-71
2022/05/05 12:16:39;;;;;;;11.00;7.55;;;19.40;99.90;;;;;;5074422;28;20036;-70
2022/05/05 12:19:12;;;;;;;12.13;7.20;;;19.30;99.90;;;;;;5074281;28;20039;-71
2022/05/05 12:21:49;;;;;;;10.73;6.22;;;19.60;98.30;;;;;;5057994;28;20036;-71
2022/05/05 12:24:15;;;;;;;8.73;6.05;;;19.40;97.80;;;;;;5091556;28;20387;-71
2022/05/05 12:26:43;;;;;;;8.98;5.22;;;19.80;99.90;;;;;;5092711;28;20096;-70
2022/05/05 12:29:17;;;;;;;10.40;6.53;;;19.90;99.90;;;;;;5073785;28;20039;-70
2022/05/05 12:31:55;;;;;;;6.72;5.93;;;19.60;99.90;;;;;;5092837;28;20100;-70
2022/05/05 12:34:25;;;;;;;11.32;6.55;;;19.70;99.90;;;;;;5057219;28;20521;-70
2022/05/05 12:37:08;;;;;;;8.70;5.55;;;19.20;99.90;;;;;;5074447;28;20047;-70
2022/05/05 12:39:34;;;;;;;6.65;5.40;;;19.50;99.90;;;;;;5073607;28;20052;-71
2022/05/05 12:42:00;;;;;;;8.60;5.20;;;19.30;99.90;;;;;;5092282;28;20115;-70
2022/05/05 12:44:33;;;;;;;9.60;6.20;;;19.40;99.90;;;;;;5092197;28;20398;-70
2022/05/05 12:47:03;;;;;;;9.68;6.05;;;19.30;99.90;;;;;;5091934;28;20040;-71
2022/05/05 12:49:35;;;;;;;12.65;7.30;;;19.40;99.90;;;;;;5069037;28;20040;-71
2022/05/05 12:52:02;;;;;;;9.15;5.88;;;19.30;99.90;;;;;;5053769;28;20040;-71
2022/05/05 12:59:57;;;;;;;8.13;6.45;;;19.50;99.90;;;;;;5070158;28;20040;-70
2022/05/05 13:02:23;;;;;;;11.18;6.32;;;19.40;99.90;;;;;;5037215;28;20468;-71
2022/05/05 13:04:49;;;;;;;9.75;6.53;;;19.40;99.90;;;;;;5053589;28;20044;-70
2022/05/05 13:07:15;;;;;;;9.32;6.68;;;19.40;99.90;;;;;;5053642;28;20045;-70
2022/05/05 13:09:41;;;;;;;13.20;7.82;;;19.80;99.90;;;;;;5036176;28;20410;-70
2022/05/05 13:12:09;;;;;;;8.05;6.35;;;;;;;;;;5064884;28;20031;-69
2022/05/05 13:14:35;;;;;;;8.88;6.05;;;19.60;99.90;;;;;;5076135;28;20157;-70
2022/05/05 13:17:01;;;;;;;10.10;6.15;;;20.00;99.90;;;;;;5061862;28;20551;-69
2022/05/05 13:19:29;;;;;;;11.20;6.53;;;19.90;99.90;;;;;;5067130;28;20036;-70
2022/05/05 13:21:54;;;;;;;11.93;7.35;;;19.80;99.90;;;;;;5073533;28;20075;-69
2022/05/05 13:24:20;;;;;;;10.68;6.18;;;19.90;99.60;;;;;;5073342;28;20075;-69
2022/05/05 13:26:46;;;;;;;8.52;6.05;;;19.80;99.50;;;;;;5066489;28;20079;-69
2022/05/05 13:29:13;;;;;;;8.02;6.00;;;19.60;99.50;;;;;;5073216;28;20075;-69
2022/05/05 13:31:39;;;;;;;8.95;5.32;;;20.10;99.50;;;;;;5053689;28;20114;-69
2022/05/05 13:34:04;;;;;;;8.60;5.75;;;19.80;99.70;;;;;;5036876;28;20448;-69
2022/05/05 13:36:31;;;;;;;10.30;6.55;;;19.60;99.80;;;;;;5036542;28;20048;-69
2022/05/05 13:38:57;;;;;;;12.07;7.57;;;19.20;99.40;;;;;;5051847;28;20033;-69
2022/05/05 13:41:22;;;;;;;9.95;6.50;;;19.40;99.90;;;;;;5052939;28;20056;-69
2022/05/05 13:43:48;;;;;;;9.45;7.47;;;19.60;99.90;;;;;;5053496;28;20135;-71
2022/05/05 13:46:14;;;;;;;12.90;7.60;;;19.80;99.90;;;;;;5074288;28;20044;-69
2022/05/05 13:48:39;;;;;;;10.80;7.43;;;19.90;99.90;;;;;;5062063;28;20542;-69
2022/05/05 13:51:05;;;;;;;12.18;6.95;;;19.70;99.90;;;;;;5056553;28;20040;-69
2022/05/05 13:53:32;;;;;;;14.25;7.85;;;19.90;99.90;;;;;;5040622;28;20040;-70
2022/05/05 13:55:57;;;;;;;12.00;7.70;;;20.00;99.60;;;;;;5040274;28;20051;-69
2022/05/05 13:58:26;;;;;;;8.95;6.35;;;19.70;99.60;;;;;;5040443;28;20041;-69
2022/05/05 14:00:51;;;;;;;9.73;6.10;;;20.00;99.20;;;;;;5056163;28;20040;-69
2022/05/05 14:03:17;;;;;;;14.32;6.93;;;19.80;99.50;;;;;;5056994;28;20089;-69
2022/05/05 14:05:43;;;;;;;11.75;7.95;;;19.90;99.70;;;;;;5056833;28;20039;-69
2022/05/05 14:13:37;;;;;;;9.98;6.95;;;19.80;99.50;;;;;;5074949;28;20041;-69